THA657 RKSI-VTBS
Flight info
| Callsign | THA657 |
|---|---|
| Flight time | N/A |
| Altitude | 40000 |
| Route | BOPTA2Y BOPTA Z51 BEDES Y711 MUGUS Y742 SALMI Q11 TACLE B591 HCN G86 KAPLI DCT MADRU DCT SULUX DCT IGLEG DCT IKELA/K0906F400 A1 PAPRA/N0489F400 A1 UBL Y20 GRASO Y13 RUKSA EASTE1C |
| Aircraft | A359/H-SDE2E3GHIJ1J3J4J5LM1ORWXY/LB1D1 |
Departure
| Time | N/A |
|---|---|
| Airport | Incheon International Airport (RKSI) |
Arrival
| Time | 2026-05-01 10:25 |
|---|---|
| Airport | Suvarnabhumi Airport (VTBS) |
| Time | Latitude | Longitude | Altitude | Speed | Heading |
|---|---|---|---|---|---|
| 2026-05-01 07:23 | 23.58925 | 121.78051 | 40032 ft | 499 kts | 201° |
| 2026-05-01 07:24 | 23.48945 | 121.74829 | 40026 ft | 498 kts | 201° |
| 2026-05-01 07:24 | 23.42308 | 121.72674 | 40031 ft | 498 kts | 201° |
| 2026-05-01 07:25 | 23.35667 | 121.70534 | 40035 ft | 498 kts | 201° |
| 2026-05-01 07:25 | 23.29073 | 121.68405 | 40021 ft | 498 kts | 200° |
| 2026-05-01 07:26 | 23.22389 | 121.66251 | 40024 ft | 498 kts | 200° |
| 2026-05-01 07:26 | 23.15796 | 121.64130 | 40023 ft | 497 kts | 200° |
| 2026-05-01 07:27 | 23.09158 | 121.61998 | 40022 ft | 497 kts | 200° |
| 2026-05-01 07:27 | 23.02521 | 121.59868 | 40018 ft | 497 kts | 200° |
| 2026-05-01 07:28 | 22.95888 | 121.57750 | 40016 ft | 497 kts | 200° |
| 2026-05-01 07:28 | 22.89255 | 121.55633 | 40006 ft | 497 kts | 200° |
| 2026-05-01 07:29 | 22.82620 | 121.53514 | 40008 ft | 497 kts | 200° |
| 2026-05-01 07:29 | 22.75992 | 121.51402 | 40007 ft | 496 kts | 200° |
| 2026-05-01 07:30 | 22.69451 | 121.49088 | 40001 ft | 491 kts | 208° |
| 2026-05-01 07:30 | 22.63737 | 121.45192 | 40003 ft | 484 kts | 220° |
| 2026-05-01 07:31 | 22.58435 | 121.40702 | 40005 ft | 484 kts | 221° |
| 2026-05-01 07:32 | 22.45234 | 121.29443 | 40005 ft | 483 kts | 221° |
| 2026-05-01 07:33 | 22.37310 | 121.22727 | 39998 ft | 482 kts | 222° |
| 2026-05-01 07:33 | 22.29453 | 121.15902 | 39992 ft | 484 kts | 221° |
| 2026-05-01 07:34 | 22.21572 | 121.09109 | 39990 ft | 483 kts | 221° |
| 2026-05-01 07:35 | 22.16322 | 121.04583 | 39993 ft | 483 kts | 221° |
| 2026-05-01 07:35 | 22.11071 | 121.00061 | 39985 ft | 483 kts | 221° |
| 2026-05-01 07:36 | 22.05820 | 120.95543 | 39985 ft | 483 kts | 221° |
| 2026-05-01 07:36 | 22.00554 | 120.91030 | 39983 ft | 485 kts | 221° |
| 2026-05-01 07:37 | 21.93665 | 120.83223 | 39979 ft | 478 kts | 241° |
| 2026-05-01 07:37 | 21.91101 | 120.76694 | 39980 ft | 473 kts | 256° |
| 2026-05-01 07:38 | 21.89515 | 120.69813 | 39977 ft | 473 kts | 258° |
| 2026-05-01 07:39 | 21.87352 | 120.59492 | 39978 ft | 472 kts | 258° |
| 2026-05-01 07:39 | 21.85130 | 120.49192 | 39962 ft | 470 kts | 258° |
| 2026-05-01 07:40 | 21.83627 | 120.42338 | 39958 ft | 470 kts | 258° |
| 2026-05-01 07:40 | 21.82121 | 120.35482 | 39973 ft | 472 kts | 258° |
| 2026-05-01 07:41 | 21.80607 | 120.28601 | 39972 ft | 474 kts | 258° |
| 2026-05-01 07:42 | 21.78324 | 120.18248 | 39964 ft | 474 kts | 258° |
| 2026-05-01 07:42 | 21.76799 | 120.11349 | 39969 ft | 474 kts | 258° |
| 2026-05-01 07:43 | 21.75269 | 120.04443 | 39966 ft | 475 kts | 258° |
| 2026-05-01 07:43 | 21.72961 | 119.94070 | 39958 ft | 475 kts | 258° |
| 2026-05-01 07:44 | 21.69896 | 119.80307 | 39975 ft | 472 kts | 258° |
| 2026-05-01 07:45 | 21.68356 | 119.73417 | 39964 ft | 474 kts | 257° |
| 2026-05-01 07:45 | 21.66811 | 119.66523 | 39962 ft | 474 kts | 257° |
| 2026-05-01 07:46 | 21.65263 | 119.59627 | 39967 ft | 475 kts | 257° |
| 2026-05-01 07:47 | 21.62934 | 119.49285 | 39965 ft | 475 kts | 257° |
| 2026-05-01 07:47 | 21.61373 | 119.42368 | 39963 ft | 477 kts | 257° |
| 2026-05-01 07:48 | 21.59023 | 119.31983 | 39964 ft | 477 kts | 257° |
| 2026-05-01 07:48 | 21.57453 | 119.25064 | 39958 ft | 476 kts | 257° |
| 2026-05-01 07:49 | 21.55099 | 119.14714 | 39964 ft | 475 kts | 257° |
| 2026-05-01 07:50 | 21.53530 | 119.07831 | 39961 ft | 475 kts | 257° |
| 2026-05-01 07:50 | 21.51168 | 118.97498 | 39974 ft | 475 kts | 257° |
| 2026-05-01 07:51 | 21.49590 | 118.90610 | 39963 ft | 476 kts | 257° |
| 2026-05-01 07:52 | 21.47207 | 118.80239 | 39964 ft | 477 kts | 257° |
| 2026-05-01 07:52 | 21.45615 | 118.73325 | 39966 ft | 477 kts | 257° |
| 2026-05-01 07:53 | 21.43230 | 118.62996 | 39964 ft | 478 kts | 257° |
| 2026-05-01 07:53 | 21.41627 | 118.56073 | 39960 ft | 478 kts | 257° |
| 2026-05-01 07:55 | 21.37625 | 118.38835 | 39949 ft | 476 kts | 257° |
| 2026-05-01 07:56 | 21.33856 | 118.22697 | 39957 ft | 479 kts | 257° |
| 2026-05-01 07:57 | 21.31419 | 118.12304 | 39956 ft | 479 kts | 257° |
| 2026-05-01 07:58 | 21.28160 | 117.98447 | 39971 ft | 480 kts | 257° |
| 2026-05-01 07:59 | 21.24895 | 117.84620 | 39960 ft | 480 kts | 257° |
| 2026-05-01 08:00 | 21.19977 | 117.63890 | 39961 ft | 478 kts | 257° |
| 2026-05-01 08:01 | 21.16903 | 117.50043 | 39959 ft | 477 kts | 264° |
| 2026-05-01 08:02 | 21.16491 | 117.39393 | 39956 ft | 478 kts | 270° |
| 2026-05-01 08:03 | 21.16401 | 117.28695 | 39960 ft | 479 kts | 270° |
| 2026-05-01 08:03 | 21.15956 | 117.18015 | 39962 ft | 480 kts | 261° |
| 2026-05-01 08:04 | 21.13918 | 117.11218 | 39959 ft | 482 kts | 247° |
| 2026-05-01 08:04 | 21.11045 | 117.04711 | 39958 ft | 484 kts | 245° |
| 2026-05-01 08:05 | 21.06544 | 116.95057 | 39957 ft | 482 kts | 245° |
| 2026-05-01 08:06 | 21.02087 | 116.85403 | 39958 ft | 482 kts | 245° |
| 2026-05-01 08:07 | 20.96152 | 116.72489 | 39952 ft | 484 kts | 245° |
| 2026-05-01 08:08 | 20.91689 | 116.62802 | 39953 ft | 484 kts | 245° |
| 2026-05-01 08:09 | 20.85732 | 116.49900 | 39952 ft | 483 kts | 245° |
| 2026-05-01 08:09 | 20.82751 | 116.43456 | 39953 ft | 483 kts | 245° |
| 2026-05-01 08:10 | 20.76782 | 116.30577 | 39949 ft | 483 kts | 245° |
| 2026-05-01 08:11 | 20.70798 | 116.17694 | 39950 ft | 485 kts | 245° |
| 2026-05-01 08:12 | 20.66308 | 116.08049 | 39937 ft | 486 kts | 245° |
| 2026-05-01 08:13 | 20.61801 | 115.98385 | 39947 ft | 484 kts | 245° |
| 2026-05-01 08:13 | 20.57295 | 115.88739 | 39949 ft | 485 kts | 245° |
| 2026-05-01 08:14 | 20.54278 | 115.82290 | 39945 ft | 486 kts | 245° |
| 2026-05-01 08:14 | 20.51255 | 115.75837 | 39943 ft | 486 kts | 245° |
| 2026-05-01 08:15 | 20.46716 | 115.66162 | 39943 ft | 486 kts | 245° |
| 2026-05-01 08:16 | 20.43689 | 115.59718 | 39935 ft | 486 kts | 245° |
| 2026-05-01 08:16 | 20.40661 | 115.53281 | 39941 ft | 485 kts | 245° |
| 2026-05-01 08:17 | 20.37636 | 115.46857 | 39939 ft | 485 kts | 245° |
| 2026-05-01 08:17 | 20.34610 | 115.40439 | 39937 ft | 485 kts | 245° |
| 2026-05-01 08:18 | 20.31581 | 115.34023 | 39939 ft | 485 kts | 245° |
| 2026-05-01 08:19 | 20.25505 | 115.21171 | 39939 ft | 486 kts | 245° |
| 2026-05-01 08:19 | 20.22460 | 115.14741 | 39940 ft | 486 kts | 245° |
| 2026-05-01 08:20 | 20.19410 | 115.08311 | 39935 ft | 486 kts | 245° |
| 2026-05-01 08:20 | 20.16358 | 115.01882 | 39931 ft | 486 kts | 245° |
| 2026-05-01 08:21 | 20.13304 | 114.95458 | 39932 ft | 487 kts | 245° |
| 2026-05-01 08:21 | 20.10244 | 114.89028 | 39935 ft | 487 kts | 245° |
| 2026-05-01 08:22 | 20.07181 | 114.82599 | 39936 ft | 487 kts | 245° |
| 2026-05-01 08:22 | 20.04117 | 114.76174 | 39935 ft | 487 kts | 245° |
| 2026-05-01 08:23 | 20.01051 | 114.69753 | 39935 ft | 487 kts | 245° |
| 2026-05-01 08:23 | 19.97981 | 114.63332 | 39927 ft | 487 kts | 245° |
| 2026-05-01 08:24 | 19.94914 | 114.56923 | 39930 ft | 486 kts | 245° |
| 2026-05-01 08:24 | 19.91868 | 114.50567 | 39935 ft | 486 kts | 245° |
| 2026-05-01 08:25 | 19.88780 | 114.44129 | 39930 ft | 486 kts | 245° |
| 2026-05-01 08:25 | 19.85731 | 114.37780 | 39925 ft | 486 kts | 245° |
| 2026-05-01 08:26 | 19.82658 | 114.31387 | 39929 ft | 486 kts | 245° |
| 2026-05-01 08:26 | 19.79578 | 114.24989 | 39927 ft | 486 kts | 245° |
| 2026-05-01 08:27 | 19.76497 | 114.18595 | 39927 ft | 486 kts | 245° |
| 2026-05-01 08:27 | 19.73414 | 114.12204 | 39922 ft | 486 kts | 245° |
| 2026-05-01 08:28 | 19.70335 | 114.05828 | 39923 ft | 485 kts | 245° |
| 2026-05-01 08:28 | 19.67255 | 113.99458 | 39927 ft | 485 kts | 245° |
| 2026-05-01 08:29 | 19.64172 | 113.93089 | 39929 ft | 485 kts | 245° |
| 2026-05-01 08:29 | 19.61087 | 113.86722 | 39923 ft | 485 kts | 245° |
| 2026-05-01 08:30 | 19.58002 | 113.80361 | 39927 ft | 485 kts | 245° |
| 2026-05-01 08:30 | 19.54931 | 113.74037 | 39927 ft | 485 kts | 245° |
| 2026-05-01 08:31 | 19.51841 | 113.67682 | 39920 ft | 485 kts | 245° |
| 2026-05-01 08:31 | 19.48748 | 113.61328 | 39919 ft | 485 kts | 245° |
| 2026-05-01 08:32 | 19.45659 | 113.54987 | 39920 ft | 484 kts | 245° |
| 2026-05-01 08:32 | 19.42565 | 113.48643 | 39919 ft | 484 kts | 245° |
| 2026-05-01 08:33 | 19.39469 | 113.42303 | 39917 ft | 484 kts | 245° |
| 2026-05-01 08:33 | 19.36374 | 113.35971 | 39920 ft | 484 kts | 245° |
| 2026-05-01 08:34 | 19.33275 | 113.29640 | 39919 ft | 484 kts | 245° |
| 2026-05-01 08:34 | 19.30177 | 113.23316 | 39914 ft | 484 kts | 245° |
| 2026-05-01 08:35 | 19.27076 | 113.16993 | 39914 ft | 484 kts | 245° |
| 2026-05-01 08:35 | 19.23975 | 113.10675 | 39913 ft | 484 kts | 245° |
| 2026-05-01 08:36 | 19.20869 | 113.04357 | 39915 ft | 483 kts | 245° |
| 2026-05-01 08:36 | 19.17767 | 112.98052 | 39913 ft | 483 kts | 245° |
| 2026-05-01 08:37 | 19.14662 | 112.91748 | 39915 ft | 483 kts | 245° |
| 2026-05-01 08:37 | 19.11556 | 112.85448 | 39913 ft | 483 kts | 245° |
| 2026-05-01 08:38 | 19.08468 | 112.79191 | 39914 ft | 483 kts | 245° |
| 2026-05-01 08:38 | 19.05359 | 112.72901 | 39914 ft | 482 kts | 245° |
| 2026-05-01 08:39 | 19.02254 | 112.66624 | 39914 ft | 482 kts | 245° |
| 2026-05-01 08:39 | 18.99149 | 112.60353 | 39913 ft | 481 kts | 245° |
| 2026-05-01 08:40 | 18.94495 | 112.50966 | 39914 ft | 481 kts | 245° |
| 2026-05-01 08:40 | 18.91148 | 112.44849 | 39910 ft | 484 kts | 237° |
| 2026-05-01 08:41 | 18.86402 | 112.39766 | 39916 ft | 491 kts | 221° |
| 2026-05-01 08:41 | 18.80906 | 112.35465 | 39914 ft | 493 kts | 219° |
| 2026-05-01 08:42 | 18.75294 | 112.31304 | 39911 ft | 493 kts | 219° |
| 2026-05-01 08:42 | 18.69695 | 112.27135 | 39908 ft | 491 kts | 220° |
| 2026-05-01 08:43 | 18.65561 | 112.23114 | 39911 ft | 484 kts | 233° |
| 2026-05-01 08:43 | 18.61608 | 112.17419 | 39914 ft | 480 kts | 239° |
| 2026-05-01 08:44 | 18.58115 | 112.11883 | 39911 ft | 480 kts | 240° |
| 2026-05-01 08:44 | 18.54449 | 112.06006 | 39911 ft | 480 kts | 240° |
| 2026-05-01 08:45 | 18.50766 | 112.00148 | 39911 ft | 479 kts | 239° |
| 2026-05-01 08:45 | 18.47065 | 111.94301 | 39911 ft | 480 kts | 239° |
| 2026-05-01 08:46 | 18.43360 | 111.88463 | 39910 ft | 479 kts | 239° |
| 2026-05-01 08:46 | 18.39654 | 111.82627 | 39908 ft | 479 kts | 239° |
| 2026-05-01 08:47 | 18.35950 | 111.76797 | 39909 ft | 479 kts | 239° |
| 2026-05-01 08:47 | 18.32245 | 111.70971 | 39903 ft | 479 kts | 239° |
| 2026-05-01 08:48 | 18.28538 | 111.65148 | 39906 ft | 479 kts | 239° |
| 2026-05-01 08:48 | 18.24829 | 111.59326 | 39905 ft | 479 kts | 239° |
| 2026-05-01 08:49 | 18.21118 | 111.53507 | 39903 ft | 479 kts | 239° |
| 2026-05-01 08:49 | 18.17404 | 111.47688 | 39905 ft | 479 kts | 240° |
| 2026-05-01 08:50 | 18.13688 | 111.41871 | 39906 ft | 480 kts | 240° |
| 2026-05-01 08:50 | 18.09962 | 111.36044 | 39906 ft | 480 kts | 240° |
| 2026-05-01 08:51 | 18.06237 | 111.30223 | 39903 ft | 480 kts | 240° |
| 2026-05-01 08:51 | 18.02509 | 111.24404 | 39903 ft | 480 kts | 240° |
| 2026-05-01 08:52 | 17.98778 | 111.18585 | 39903 ft | 480 kts | 239° |
| 2026-05-01 08:52 | 17.95048 | 111.12772 | 39902 ft | 480 kts | 239° |
| 2026-05-01 08:53 | 17.91312 | 111.06955 | 39898 ft | 481 kts | 239° |
| 2026-05-01 08:53 | 17.87574 | 111.01140 | 39903 ft | 480 kts | 239° |
| 2026-05-01 08:54 | 17.83836 | 110.95330 | 39900 ft | 480 kts | 239° |
| 2026-05-01 08:54 | 17.80097 | 110.89524 | 39897 ft | 480 kts | 239° |
| 2026-05-01 08:55 | 17.76356 | 110.83719 | 39900 ft | 480 kts | 239° |
| 2026-05-01 08:55 | 17.72612 | 110.77915 | 39900 ft | 480 kts | 239° |
| 2026-05-01 08:56 | 17.68868 | 110.72117 | 39897 ft | 480 kts | 239° |
| 2026-05-01 08:56 | 17.65123 | 110.66322 | 39897 ft | 480 kts | 239° |
| 2026-05-01 08:57 | 17.61379 | 110.60533 | 39897 ft | 480 kts | 239° |
| 2026-05-01 08:57 | 17.57631 | 110.54743 | 39897 ft | 480 kts | 239° |
| 2026-05-01 08:58 | 17.53881 | 110.48956 | 39897 ft | 480 kts | 239° |
| 2026-05-01 08:58 | 17.50129 | 110.43170 | 39897 ft | 480 kts | 239° |
| 2026-05-01 08:59 | 17.46377 | 110.37390 | 39898 ft | 480 kts | 239° |
| 2026-05-01 08:59 | 17.42624 | 110.31612 | 39897 ft | 480 kts | 239° |
| 2026-05-01 09:00 | 17.38882 | 110.25829 | 39901 ft | 479 kts | 239° |
| 2026-05-01 09:00 | 17.35178 | 110.20028 | 39898 ft | 480 kts | 239° |
| 2026-05-01 09:01 | 17.31471 | 110.14220 | 39898 ft | 480 kts | 239° |
| 2026-05-01 09:01 | 17.27756 | 110.08418 | 39898 ft | 480 kts | 239° |
| 2026-05-01 09:02 | 17.24061 | 110.02659 | 39896 ft | 480 kts | 239° |
| 2026-05-01 09:02 | 17.20336 | 109.96860 | 39894 ft | 480 kts | 239° |
| 2026-05-01 09:03 | 17.16610 | 109.91065 | 39894 ft | 480 kts | 239° |
| 2026-05-01 09:03 | 17.12881 | 109.85268 | 39895 ft | 480 kts | 239° |
| 2026-05-01 09:04 | 17.09154 | 109.79480 | 39896 ft | 480 kts | 239° |
| 2026-05-01 09:04 | 17.05427 | 109.73696 | 39893 ft | 479 kts | 238° |
| 2026-05-01 09:05 | 17.01706 | 109.67927 | 39890 ft | 478 kts | 238° |
| 2026-05-01 09:05 | 16.97989 | 109.62168 | 39892 ft | 478 kts | 238° |
| 2026-05-01 09:06 | 16.94271 | 109.56412 | 39892 ft | 478 kts | 238° |
| 2026-05-01 09:06 | 16.90552 | 109.50660 | 39892 ft | 478 kts | 238° |
| 2026-05-01 09:07 | 16.86853 | 109.44945 | 39895 ft | 478 kts | 239° |
| 2026-05-01 09:07 | 16.83146 | 109.39222 | 39892 ft | 474 kts | 239° |
| 2026-05-01 09:08 | 16.79456 | 109.33524 | 39892 ft | 473 kts | 238° |
| 2026-05-01 09:08 | 16.75775 | 109.27832 | 39895 ft | 473 kts | 238° |
| 2026-05-01 09:09 | 16.72096 | 109.22148 | 39892 ft | 473 kts | 238° |
| 2026-05-01 09:09 | 16.68413 | 109.16468 | 39896 ft | 473 kts | 238° |
| 2026-05-01 09:10 | 16.64726 | 109.10786 | 39890 ft | 473 kts | 238° |
| 2026-05-01 09:10 | 16.61044 | 109.05116 | 39889 ft | 472 kts | 238° |
| 2026-05-01 09:11 | 16.57360 | 108.99448 | 39889 ft | 472 kts | 238° |
| 2026-05-01 09:11 | 16.53657 | 108.93793 | 39890 ft | 472 kts | 238° |
| 2026-05-01 09:12 | 16.49908 | 108.88173 | 39897 ft | 473 kts | 238° |
| 2026-05-01 09:12 | 16.46140 | 108.82540 | 39901 ft | 474 kts | 238° |
| 2026-05-01 09:13 | 16.42395 | 108.76933 | 39886 ft | 475 kts | 238° |
| 2026-05-01 09:13 | 16.38631 | 108.71294 | 39887 ft | 474 kts | 238° |
| 2026-05-01 09:14 | 16.34869 | 108.65663 | 39888 ft | 473 kts | 238° |
| 2026-05-01 09:14 | 16.31151 | 108.59952 | 39902 ft | 473 kts | 239° |
| 2026-05-01 09:15 | 16.27509 | 108.54251 | 39899 ft | 473 kts | 239° |
| 2026-05-01 09:15 | 16.23857 | 108.48556 | 39886 ft | 473 kts | 239° |
| 2026-05-01 09:16 | 16.20192 | 108.42873 | 39892 ft | 473 kts | 239° |
| 2026-05-01 09:17 | 16.14669 | 108.34330 | 39906 ft | 475 kts | 238° |
| 2026-05-01 09:17 | 16.09129 | 108.25772 | 39915 ft | 476 kts | 238° |
| 2026-05-01 09:18 | 16.04501 | 108.16795 | 39915 ft | 471 kts | 253° |
| 2026-05-01 09:19 | 16.01637 | 108.07041 | 39913 ft | 470 kts | 256° |
| 2026-05-01 09:20 | 15.98941 | 107.97238 | 39910 ft | 470 kts | 255° |
| 2026-05-01 09:21 | 15.95303 | 107.84178 | 39911 ft | 470 kts | 256° |
| 2026-05-01 09:21 | 15.92640 | 107.74371 | 39914 ft | 470 kts | 256° |
| 2026-05-01 09:22 | 15.89056 | 107.61311 | 39909 ft | 470 kts | 255° |
| 2026-05-01 09:23 | 15.86239 | 107.51549 | 39909 ft | 470 kts | 255° |
| 2026-05-01 09:24 | 15.83422 | 107.41794 | 39932 ft | 470 kts | 255° |
| 2026-05-01 09:25 | 15.79671 | 107.28764 | 39938 ft | 471 kts | 255° |
| 2026-05-01 09:26 | 15.76852 | 107.18983 | 39937 ft | 471 kts | 255° |
| 2026-05-01 09:26 | 15.74501 | 107.09089 | 39940 ft | 471 kts | 259° |
| 2026-05-01 09:27 | 15.72492 | 106.99107 | 39919 ft | 473 kts | 258° |
| 2026-05-01 09:28 | 15.71074 | 106.92430 | 39927 ft | 474 kts | 258° |
| 2026-05-01 09:28 | 15.69633 | 106.85798 | 39908 ft | 474 kts | 258° |
| 2026-05-01 09:29 | 15.67686 | 106.76864 | 39887 ft | 475 kts | 258° |
| 2026-05-01 09:30 | 15.65260 | 106.65736 | 39882 ft | 476 kts | 258° |
| 2026-05-01 09:30 | 15.63304 | 106.56778 | 39874 ft | 476 kts | 258° |
| 2026-05-01 09:31 | 15.61839 | 106.50083 | 39871 ft | 476 kts | 258° |
| 2026-05-01 09:32 | 15.59638 | 106.40042 | 39873 ft | 476 kts | 258° |
| 2026-05-01 09:32 | 15.57432 | 106.29997 | 39885 ft | 477 kts | 257° |
| 2026-05-01 09:33 | 15.55956 | 106.23293 | 39886 ft | 477 kts | 257° |
| 2026-05-01 09:34 | 15.53737 | 106.13230 | 39879 ft | 477 kts | 257° |
| 2026-05-01 09:34 | 15.51524 | 106.03220 | 39870 ft | 477 kts | 257° |
| 2026-05-01 09:35 | 15.49298 | 105.93172 | 39871 ft | 476 kts | 257° |
| 2026-05-01 09:36 | 15.47814 | 105.86488 | 39861 ft | 475 kts | 257° |
| 2026-05-01 09:36 | 15.46330 | 105.79811 | 39858 ft | 475 kts | 257° |
| 2026-05-01 09:37 | 15.44844 | 105.73136 | 39848 ft | 475 kts | 257° |
| 2026-05-01 09:37 | 15.42610 | 105.63117 | 39856 ft | 475 kts | 258° |
| 2026-05-01 09:38 | 15.40341 | 105.53145 | 39852 ft | 473 kts | 257° |
| 2026-05-01 09:39 | 15.37972 | 105.43213 | 39853 ft | 473 kts | 257° |
| 2026-05-01 09:39 | 15.36399 | 105.36591 | 39848 ft | 473 kts | 257° |
| 2026-05-01 09:40 | 15.34048 | 105.26660 | 39846 ft | 473 kts | 257° |
| 2026-05-01 09:41 | 15.32485 | 105.20063 | 39849 ft | 471 kts | 257° |
| 2026-05-01 09:41 | 15.30152 | 105.10235 | 39853 ft | 470 kts | 257° |
| 2026-05-01 09:42 | 15.28587 | 105.03654 | 39855 ft | 470 kts | 257° |
| 2026-05-01 09:43 | 15.25453 | 104.90504 | 39829 ft | 470 kts | 257° |
| 2026-05-01 09:43 | 15.24330 | 104.83860 | 39825 ft | 468 kts | 264° |
| 2026-05-01 09:44 | 15.23441 | 104.73794 | 39828 ft | 468 kts | 265° |
| 2026-05-01 09:45 | 15.22909 | 104.67081 | 39836 ft | 468 kts | 265° |
| 2026-05-01 09:45 | 15.22091 | 104.57011 | 39840 ft | 468 kts | 265° |
| 2026-05-01 09:46 | 15.21535 | 104.50302 | 39849 ft | 468 kts | 265° |
| 2026-05-01 09:46 | 15.20975 | 104.43588 | 39847 ft | 468 kts | 265° |
| 2026-05-01 09:47 | 15.20415 | 104.36879 | 39845 ft | 468 kts | 265° |
| 2026-05-01 09:47 | 15.19849 | 104.30172 | 39843 ft | 468 kts | 265° |
| 2026-05-01 09:48 | 15.19334 | 104.24048 | 39844 ft | 468 kts | 265° |
| 2026-05-01 09:48 | 15.18769 | 104.17338 | 39841 ft | 467 kts | 265° |
| 2026-05-01 09:49 | 15.18202 | 104.10636 | 39844 ft | 468 kts | 265° |
| 2026-05-01 09:49 | 15.17631 | 104.03923 | 39850 ft | 468 kts | 265° |
| 2026-05-01 09:50 | 15.17058 | 103.97206 | 39848 ft | 468 kts | 265° |
| 2026-05-01 09:50 | 15.16486 | 103.90532 | 39850 ft | 468 kts | 265° |
| 2026-05-01 09:51 | 15.15909 | 103.83817 | 39847 ft | 469 kts | 264° |
| 2026-05-01 09:51 | 15.14853 | 103.77125 | 39854 ft | 469 kts | 253° |
| 2026-05-01 09:52 | 15.12920 | 103.70672 | 39853 ft | 469 kts | 252° |
| 2026-05-01 09:52 | 15.10840 | 103.64270 | 39851 ft | 469 kts | 251° |
| 2026-05-01 09:53 | 15.08756 | 103.57914 | 39850 ft | 469 kts | 251° |
| 2026-05-01 09:53 | 15.06672 | 103.51513 | 39853 ft | 469 kts | 251° |
| 2026-05-01 09:54 | 15.04596 | 103.45113 | 39847 ft | 469 kts | 252° |
| 2026-05-01 09:54 | 15.02526 | 103.38727 | 39846 ft | 468 kts | 252° |
| 2026-05-01 09:55 | 15.00453 | 103.32344 | 39840 ft | 468 kts | 252° |
| 2026-05-01 09:55 | 14.98379 | 103.25964 | 39846 ft | 468 kts | 252° |
| 2026-05-01 09:56 | 14.96304 | 103.19589 | 39846 ft | 468 kts | 252° |
| 2026-05-01 09:56 | 14.94227 | 103.13211 | 39852 ft | 468 kts | 252° |
| 2026-05-01 09:57 | 14.92148 | 103.06839 | 39851 ft | 467 kts | 252° |
| 2026-05-01 09:57 | 14.90071 | 103.00477 | 39855 ft | 467 kts | 252° |
| 2026-05-01 09:58 | 14.87993 | 102.94117 | 39852 ft | 467 kts | 252° |
| 2026-05-01 09:58 | 14.85927 | 102.87754 | 39863 ft | 467 kts | 253° |
| 2026-05-01 09:59 | 14.83983 | 102.81354 | 39860 ft | 467 kts | 253° |
| 2026-05-01 09:59 | 14.82033 | 102.74952 | 39863 ft | 467 kts | 253° |
| 2026-05-01 10:00 | 14.80074 | 102.68555 | 39860 ft | 467 kts | 253° |
| 2026-05-01 10:00 | 14.78111 | 102.62164 | 39864 ft | 467 kts | 253° |
| 2026-05-01 10:01 | 14.76144 | 102.55770 | 39866 ft | 467 kts | 253° |
| 2026-05-01 10:01 | 14.74188 | 102.49417 | 39865 ft | 467 kts | 253° |
| 2026-05-01 10:02 | 14.72218 | 102.43027 | 39874 ft | 467 kts | 253° |
| 2026-05-01 10:02 | 14.70243 | 102.36628 | 39873 ft | 469 kts | 252° |
| 2026-05-01 10:03 | 14.68256 | 102.30197 | 39877 ft | 471 kts | 252° |
| 2026-05-01 10:03 | 14.66261 | 102.23748 | 39879 ft | 471 kts | 252° |
| 2026-05-01 10:04 | 14.64266 | 102.17304 | 39760 ft | 467 kts | 252° |
| 2026-05-01 10:04 | 14.63281 | 102.14127 | 39154 ft | 465 kts | 252° |
| 2026-05-01 10:04 | 14.62294 | 102.10945 | 38391 ft | 466 kts | 252° |
| 2026-05-01 10:05 | 14.61303 | 102.07749 | 37454 ft | 469 kts | 253° |
| 2026-05-01 10:05 | 14.60304 | 102.04529 | 36479 ft | 474 kts | 253° |
| 2026-05-01 10:05 | 14.59291 | 102.01267 | 35515 ft | 479 kts | 253° |
| 2026-05-01 10:05 | 14.58270 | 101.97981 | 34586 ft | 483 kts | 253° |
| 2026-05-01 10:06 | 14.57240 | 101.94666 | 33664 ft | 486 kts | 253° |
| 2026-05-01 10:06 | 14.56200 | 101.91328 | 32639 ft | 490 kts | 253° |
| 2026-05-01 10:06 | 14.54985 | 101.88036 | 31621 ft | 494 kts | 248° |
| 2026-05-01 10:06 | 14.53625 | 101.84761 | 30625 ft | 497 kts | 248° |
| 2026-05-01 10:07 | 14.52262 | 101.81472 | 29534 ft | 501 kts | 248° |
| 2026-05-01 10:07 | 14.50906 | 101.78157 | 28489 ft | 501 kts | 248° |
| 2026-05-01 10:07 | 14.49564 | 101.74850 | 27618 ft | 498 kts | 248° |
| 2026-05-01 10:07 | 14.48256 | 101.71609 | 26844 ft | 493 kts | 248° |
| 2026-05-01 10:08 | 14.45674 | 101.65192 | 25028 ft | 471 kts | 248° |
| 2026-05-01 10:08 | 14.44429 | 101.62092 | 23629 ft | 466 kts | 248° |
| 2026-05-01 10:08 | 14.43197 | 101.59027 | 22077 ft | 459 kts | 248° |
| 2026-05-01 10:09 | 14.41984 | 101.56007 | 20651 ft | 452 kts | 248° |
| 2026-05-01 10:09 | 14.40793 | 101.53042 | 19291 ft | 443 kts | 248° |
| 2026-05-01 10:09 | 14.39618 | 101.50119 | 18097 ft | 443 kts | 247° |
| 2026-05-01 10:09 | 14.38457 | 101.47232 | 17350 ft | 422 kts | 247° |
| 2026-05-01 10:10 | 14.37358 | 101.44500 | 16422 ft | 404 kts | 247° |
| 2026-05-01 10:10 | 14.36289 | 101.41844 | 15711 ft | 396 kts | 247° |
| 2026-05-01 10:10 | 14.34331 | 101.36980 | 15489 ft | 347 kts | 247° |
| 2026-05-01 10:11 | 14.33424 | 101.34728 | 15379 ft | 333 kts | 247° |
| 2026-05-01 10:11 | 14.32543 | 101.32542 | 15271 ft | 329 kts | 247° |
| 2026-05-01 10:11 | 14.31662 | 101.30359 | 14865 ft | 331 kts | 247° |
| 2026-05-01 10:11 | 14.30653 | 101.28225 | 14315 ft | 332 kts | 238° |
| 2026-05-01 10:12 | 14.29397 | 101.26231 | 13786 ft | 331 kts | 235° |
| 2026-05-01 10:12 | 14.28532 | 101.24935 | 13415 ft | 331 kts | 235° |
| 2026-05-01 10:12 | 14.25496 | 101.20406 | 12185 ft | 326 kts | 235° |
| 2026-05-01 10:13 | 14.24217 | 101.18493 | 11747 ft | 322 kts | 235° |
| 2026-05-01 10:13 | 14.22962 | 101.16613 | 11347 ft | 316 kts | 235° |
| 2026-05-01 10:13 | 14.21724 | 101.14758 | 10877 ft | 313 kts | 235° |
| 2026-05-01 10:14 | 14.19292 | 101.11112 | 10216 ft | 298 kts | 235° |
| 2026-05-01 10:14 | 14.18144 | 101.09391 | 10116 ft | 284 kts | 235° |
| 2026-05-01 10:14 | 14.17052 | 101.07754 | 10017 ft | 272 kts | 234° |
| 2026-05-01 10:14 | 14.15959 | 101.06116 | 9707 ft | 282 kts | 234° |
| 2026-05-01 10:15 | 14.14836 | 101.04434 | 9366 ft | 286 kts | 234° |
| 2026-05-01 10:15 | 14.13713 | 101.02752 | 8950 ft | 284 kts | 234° |
| 2026-05-01 10:15 | 14.12596 | 101.01080 | 8468 ft | 280 kts | 234° |
| 2026-05-01 10:15 | 14.11488 | 100.99422 | 8098 ft | 281 kts | 234° |
| 2026-05-01 10:16 | 14.10378 | 100.97760 | 7680 ft | 281 kts | 234° |
| 2026-05-01 10:16 | 14.09270 | 100.96102 | 7304 ft | 281 kts | 234° |
| 2026-05-01 10:16 | 14.07081 | 100.92827 | 6545 ft | 278 kts | 234° |
| 2026-05-01 10:17 | 14.05991 | 100.91195 | 6156 ft | 276 kts | 234° |
| 2026-05-01 10:17 | 14.03876 | 100.88035 | 5775 ft | 256 kts | 234° |
| 2026-05-01 10:17 | 14.02892 | 100.86563 | 5655 ft | 244 kts | 234° |
| 2026-05-01 10:18 | 14.00439 | 100.84329 | 5133 ft | 238 kts | 198° |
| 2026-05-01 10:18 | 13.98851 | 100.83857 | 4841 ft | 237 kts | 193° |
| 2026-05-01 10:18 | 13.97796 | 100.83591 | 4650 ft | 235 kts | 193° |
| 2026-05-01 10:19 | 13.96208 | 100.83193 | 4374 ft | 235 kts | 193° |
| 2026-05-01 10:19 | 13.94619 | 100.82788 | 4101 ft | 236 kts | 194° |
| 2026-05-01 10:19 | 13.93037 | 100.82381 | 3827 ft | 234 kts | 193° |
| 2026-05-01 10:20 | 13.89966 | 100.81581 | 3511 ft | 217 kts | 194° |
| 2026-05-01 10:20 | 13.88544 | 100.81204 | 3436 ft | 205 kts | 194° |
| 2026-05-01 10:20 | 13.87207 | 100.80852 | 3369 ft | 192 kts | 194° |
| 2026-05-01 10:20 | 13.85923 | 100.80513 | 3202 ft | 189 kts | 195° |
| 2026-05-01 10:21 | 13.84652 | 100.80182 | 2949 ft | 188 kts | 194° |
| 2026-05-01 10:21 | 13.82111 | 100.79512 | 2545 ft | 188 kts | 194° |
| 2026-05-01 10:21 | 13.80852 | 100.79178 | 2371 ft | 184 kts | 194° |
| 2026-05-01 10:22 | 13.78561 | 100.78573 | 2138 ft | 157 kts | 194° |
| 2026-05-01 10:22 | 13.76466 | 100.78025 | 1591 ft | 154 kts | 194° |
| 2026-05-01 10:23 | 13.75432 | 100.77751 | 1238 ft | 153 kts | 194° |
| 2026-05-01 10:23 | 13.73484 | 100.77245 | 744 ft | 133 kts | 193° |
| 2026-05-01 10:23 | 13.72599 | 100.77033 | 608 ft | 129 kts | 196° |
| 2026-05-01 10:24 | 13.70882 | 100.76563 | 355 ft | 126 kts | 198° |
| 2026-05-01 10:24 | 13.69201 | 100.76117 | 71 ft | 126 kts | 198° |
| 2026-05-01 10:25 | 13.67672 | 100.75710 | 20 ft | 90 kts | 194° |
| 2026-05-01 10:25 | 13.67200 | 100.75544 | 23 ft | 17 kts | 216° |
| 2026-05-01 10:26 | 13.67134 | 100.75488 | 23 ft | 9 kts | 222° |
| 2026-05-01 10:26 | 13.67095 | 100.75429 | 22 ft | 11 kts | 249° |
| 2026-05-01 10:26 | 13.67091 | 100.75413 | 23 ft | 0 kts | 258° |
| 2026-05-01 10:27 | 13.67091 | 100.75412 | 22 ft | 0 kts | 262° |
| 2026-05-01 10:27 | 13.67149 | 100.75385 | 21 ft | 15 kts | 1° |
| 2026-05-01 10:28 | 13.67261 | 100.75411 | 21 ft | 18 kts | 14° |
| 2026-05-01 10:28 | 13.67530 | 100.75480 | 20 ft | 21 kts | 14° |
| 2026-05-01 10:28 | 13.67682 | 100.75519 | 21 ft | 24 kts | 14° |
| 2026-05-01 10:29 | 13.67966 | 100.75594 | 21 ft | 22 kts | 14° |
| 2026-05-01 10:29 | 13.68113 | 100.75633 | 21 ft | 23 kts | 14° |
| 2026-05-01 10:30 | 13.68388 | 100.75705 | 22 ft | 12 kts | 12° |
| 2026-05-01 10:30 | 13.68478 | 100.75560 | 22 ft | 16 kts | 284° |
| 2026-05-01 10:31 | 13.68624 | 100.75469 | 22 ft | 17 kts | 14° |
| 2026-05-01 10:31 | 13.68795 | 100.75514 | 22 ft | 5 kts | 14° |
| 2026-05-01 10:32 | 13.68829 | 100.75469 | 22 ft | 6 kts | 284° |
| 2026-05-01 10:32 | 13.68837 | 100.75434 | 20 ft | 4 kts | 284° |
| 2026-05-01 10:32 | 13.68839 | 100.75427 | 19 ft | 0 kts | 284° |
| 2026-05-01 10:33 | 13.68839 | 100.75426 | 19 ft | 0 kts | 284° |